createdAt,value
2018-07-30T00:01:47.580Z,22.26
2018-07-30T00:04:53.762Z,22.25
2018-07-30T00:08:00.442Z,22.22
2018-07-30T00:11:05.280Z,22.20
2018-07-30T00:14:11.087Z,22.17
2018-07-30T00:17:17.880Z,22.14
2018-07-30T00:20:23.542Z,22.11
2018-07-30T00:23:28.361Z,22.08
2018-07-30T00:26:34.044Z,22.05
2018-07-30T00:29:39.576Z,21.99
2018-07-30T00:32:45.289Z,21.96
2018-07-30T00:35:50.701Z,21.92
2018-07-30T00:38:55.532Z,21.88
2018-07-30T00:42:00.747Z,21.85
2018-07-30T00:45:05.580Z,21.79
2018-07-30T00:48:11.337Z,21.73
2018-07-30T00:51:16.961Z,21.67
2018-07-30T00:54:23.006Z,21.63
2018-07-30T00:57:27.867Z,21.60
2018-07-30T01:00:34.690Z,21.53
2018-07-30T01:03:41.791Z,21.47
2018-07-30T01:06:47.765Z,21.42
2018-07-30T01:09:53.157Z,21.38
2018-07-30T01:12:58.021Z,21.34
2018-07-30T01:16:02.822Z,21.25
2018-07-30T01:19:08.310Z,21.20
2018-07-30T01:22:13.162Z,21.17
2018-07-30T01:25:18.959Z,21.10
2018-07-30T01:28:24.010Z,21.08
2018-07-30T01:31:29.262Z,21.04
2018-07-30T01:34:34.132Z,20.96
2018-07-30T01:37:40.942Z,20.90
2018-07-30T01:40:45.777Z,20.85
2018-07-30T01:43:51.591Z,20.85
2018-07-30T01:46:57.042Z,20.80
2018-07-30T01:50:02.236Z,20.76
2018-07-30T01:53:08.342Z,20.74
2018-07-30T01:56:14.146Z,20.71
2018-07-30T01:59:19.074Z,20.70
2018-07-30T02:02:24.886Z,20.68
2018-07-30T02:05:30.179Z,20.68
2018-07-30T02:08:35.081Z,20.68
2018-07-30T02:11:40.165Z,20.68
2018-07-30T02:14:45.951Z,20.66
2018-07-30T02:17:52.705Z,20.64
2018-07-30T02:20:57.529Z,20.61
2018-07-30T02:24:03.151Z,20.60
2018-07-30T02:27:09.165Z,20.59
2018-07-30T02:30:15.131Z,20.58
2018-07-30T02:33:19.967Z,20.54
2018-07-30T02:36:24.798Z,20.55
2018-07-30T02:39:29.619Z,20.54
2018-07-30T02:42:34.671Z,20.52
2018-07-30T02:45:39.486Z,20.51
2018-07-30T02:48:44.740Z,20.49
2018-07-30T02:51:49.976Z,20.48
2018-07-30T02:54:55.657Z,20.48
2018-07-30T02:58:00.545Z,20.48
2018-07-30T03:01:05.362Z,20.46
2018-07-30T03:04:12.501Z,20.45
2018-07-30T03:07:17.329Z,20.44
2018-07-30T03:10:22.401Z,20.43
2018-07-30T03:13:27.967Z,20.41
2018-07-30T03:16:36.082Z,20.37
2018-07-30T03:19:41.572Z,20.37
2018-07-30T03:22:46.699Z,20.38
2018-07-30T03:25:52.292Z,20.38
2018-07-30T03:28:58.325Z,20.41
2018-07-30T03:32:04.434Z,20.40
2018-07-30T03:35:10.166Z,20.38
2018-07-30T03:38:14.962Z,20.37
2018-07-30T03:41:19.793Z,20.40
2018-07-30T03:44:25.035Z,20.42
2018-07-30T03:47:31.113Z,20.43
2018-07-30T03:50:36.007Z,20.42
2018-07-30T03:53:40.843Z,20.42
2018-07-30T03:56:46.598Z,20.42
2018-07-30T03:59:52.319Z,20.40
2018-07-30T04:02:58.291Z,20.40
2018-07-30T04:06:03.392Z,20.37
2018-07-30T04:09:09.026Z,20.35
2018-07-30T04:12:14.434Z,20.35
2018-07-30T04:15:19.613Z,20.34
2018-07-30T04:18:25.349Z,20.32
2018-07-30T04:21:30.184Z,20.33
2018-07-30T04:24:35.948Z,20.35
2018-07-30T04:27:41.198Z,20.36
2018-07-30T04:30:47.387Z,20.38
2018-07-30T04:33:54.386Z,20.41
2018-07-30T04:37:00.202Z,20.43
2018-07-30T04:40:05.074Z,20.44
2018-07-30T04:43:11.672Z,20.45
2018-07-30T04:46:17.326Z,20.47
2018-07-30T04:49:22.337Z,20.49
2018-07-30T04:52:28.004Z,20.51
2018-07-30T04:55:33.749Z,20.52
2018-07-30T04:58:38.927Z,20.54
2018-07-30T05:01:43.762Z,20.57
2018-07-30T05:04:48.604Z,20.59
2018-07-30T05:07:53.527Z,20.62
2018-07-30T05:10:58.373Z,20.65
2018-07-30T05:14:03.521Z,20.67
2018-07-30T05:17:08.398Z,20.70
2018-07-30T05:20:13.229Z,20.74
2018-07-30T05:23:19.048Z,20.76
2018-07-30T05:26:24.915Z,20.82
2018-07-30T05:29:29.689Z,20.85
2018-07-30T05:32:36.393Z,20.88
2018-07-30T05:35:42.082Z,20.92
2018-07-30T05:38:48.135Z,20.98
2018-07-30T05:41:54.514Z,21.03
2018-07-30T05:45:00.275Z,21.09
2018-07-30T05:48:06.526Z,21.15
2018-07-30T05:51:12.183Z,21.21
2018-07-30T05:54:17.062Z,21.28
2018-07-30T05:57:23.814Z,21.34
2018-07-30T06:00:30.063Z,21.40
2018-07-30T06:03:36.062Z,21.48
2018-07-30T06:06:41.509Z,21.55
2018-07-30T06:09:48.786Z,21.62
2018-07-30T06:12:54.595Z,21.69
2018-07-30T06:16:00.337Z,21.75
2018-07-30T06:19:06.135Z,21.82
2018-07-30T06:22:12.056Z,21.89
2018-07-30T06:25:18.393Z,21.95
2018-07-30T06:28:23.214Z,22.00
2018-07-30T06:31:29.079Z,22.07
2018-07-30T06:34:33.944Z,22.13
2018-07-30T06:37:39.401Z,22.18
2018-07-30T06:40:46.810Z,22.22
2018-07-30T06:43:52.251Z,22.28
2018-07-30T06:46:58.027Z,22.34
2018-07-30T06:50:03.716Z,22.39
2018-07-30T06:53:09.635Z,22.43
2018-07-30T06:56:14.649Z,22.46
2018-07-30T06:59:22.187Z,22.52
2018-07-30T07:02:28.045Z,22.55
2018-07-30T07:05:32.865Z,22.58
2018-07-30T07:08:37.696Z,22.62
2018-07-30T07:11:43.059Z,22.66
2018-07-30T07:14:47.972Z,22.71
2018-07-30T07:17:52.788Z,22.74
2018-07-30T07:20:58.464Z,22.78
2018-07-30T07:24:03.989Z,22.83
2018-07-30T07:27:11.318Z,22.87
2018-07-30T07:30:16.854Z,22.89
2018-07-30T07:33:21.898Z,22.94
2018-07-30T07:36:27.727Z,22.97
2018-07-30T07:39:33.966Z,23.01
2018-07-30T07:42:39.824Z,23.04
2018-07-30T07:45:45.594Z,23.08
2018-07-30T07:48:51.183Z,23.12
2018-07-30T07:51:58.289Z,23.19
2018-07-30T07:55:04.112Z,23.27
2018-07-30T07:58:08.913Z,23.35
2018-07-30T08:01:14.177Z,23.42
2018-07-30T08:04:20.017Z,23.51
2018-07-30T08:07:25.246Z,23.58
2018-07-30T08:10:31.098Z,23.65
2018-07-30T08:13:36.361Z,23.75
2018-07-30T08:16:42.186Z,23.82
2018-07-30T08:19:48.907Z,23.90
2018-07-30T08:22:54.447Z,23.98
2018-07-30T08:25:59.533Z,24.08
2018-07-30T08:29:04.598Z,24.17
2018-07-30T08:32:10.785Z,24.27
2018-07-30T08:35:16.439Z,24.37
2018-07-30T08:38:21.282Z,24.45
2018-07-30T08:41:27.374Z,24.54
2018-07-30T08:44:34.130Z,24.63
2018-07-30T08:47:39.590Z,24.71
2018-07-30T08:50:44.440Z,24.78
2018-07-30T08:53:49.785Z,24.83
2018-07-30T08:56:54.820Z,24.89
2018-07-30T08:59:59.963Z,24.95
2018-07-30T09:03:05.103Z,24.99
2018-07-30T09:06:10.741Z,25.07
2018-07-30T09:09:16.585Z,25.09
2018-07-30T09:12:21.470Z,25.13
2018-07-30T09:15:26.813Z,25.17
2018-07-30T09:18:32.607Z,25.22
2018-07-30T09:21:39.032Z,25.27
2018-07-30T09:24:44.767Z,25.29
2018-07-30T09:27:49.596Z,25.32
2018-07-30T09:30:54.480Z,25.36
2018-07-30T09:34:00.565Z,25.40
2018-07-30T09:37:06.396Z,25.43
2018-07-30T09:40:11.211Z,25.50
2018-07-30T09:43:16.921Z,25.59
2018-07-30T09:46:23.862Z,25.69
2018-07-30T09:49:29.518Z,25.82
2018-07-30T09:52:35.458Z,25.93
2018-07-30T09:55:42.531Z,26.01
2018-07-30T09:58:47.344Z,26.08
2018-07-30T10:01:53.708Z,26.14
2018-07-30T10:04:59.515Z,26.24
2018-07-30T10:08:04.791Z,26.33
2018-07-30T10:11:09.640Z,26.43
2018-07-30T10:14:14.446Z,26.50
2018-07-30T10:17:19.669Z,26.56
2018-07-30T10:20:25.493Z,26.65
2018-07-30T10:23:31.352Z,26.71
2018-07-30T10:26:36.214Z,26.77
2018-07-30T10:29:41.438Z,26.84
2018-07-30T10:32:47.309Z,26.92
2018-07-30T10:35:52.175Z,27.01
2018-07-30T10:38:57.543Z,27.08
2018-07-30T10:42:02.938Z,27.15
2018-07-30T10:45:08.061Z,27.21
2018-07-30T10:48:13.290Z,27.27
2018-07-30T10:51:19.005Z,27.31
2018-07-30T10:54:24.678Z,27.39
2018-07-30T10:57:30.750Z,27.43
2018-07-30T11:00:36.678Z,27.48
2018-07-30T11:03:42.523Z,27.55
2018-07-30T11:06:47.379Z,27.59
2018-07-30T11:09:52.849Z,27.63
2018-07-30T11:13:00.065Z,27.72
2018-07-30T11:16:05.648Z,27.79
2018-07-30T11:19:10.856Z,27.86
2018-07-30T11:22:15.743Z,27.92
2018-07-30T11:25:21.825Z,27.98
2018-07-30T11:28:28.114Z,28.03
2018-07-30T11:31:33.550Z,28.06
2018-07-30T11:34:39.053Z,28.11
2018-07-30T11:37:44.815Z,28.14
2018-07-30T11:40:49.633Z,28.20
2018-07-30T11:43:56.346Z,28.23
2018-07-30T11:47:01.868Z,28.26
2018-07-30T11:50:06.771Z,28.30
2018-07-30T11:53:12.996Z,28.36
2018-07-30T11:56:19.110Z,28.43
2018-07-30T11:59:24.852Z,28.49
2018-07-30T12:02:30.851Z,28.54
2018-07-30T12:05:36.067Z,28.58
2018-07-30T12:08:40.994Z,28.61
2018-07-30T12:11:46.043Z,28.64
2018-07-30T12:14:51.441Z,28.69
2018-07-30T12:17:58.134Z,28.75
2018-07-30T12:21:03.990Z,28.76
2018-07-30T12:24:09.397Z,28.79
2018-07-30T12:27:15.434Z,28.82
2018-07-30T12:30:20.551Z,28.84
2018-07-30T12:33:25.515Z,28.86
2018-07-30T12:36:30.973Z,28.89
2018-07-30T12:39:36.958Z,28.88
2018-07-30T12:42:42.709Z,28.91
2018-07-30T12:45:49.141Z,28.91
2018-07-30T12:48:54.825Z,28.96
2018-07-30T12:52:01.163Z,29.02
2018-07-30T12:55:06.751Z,29.08
2018-07-30T12:58:11.674Z,29.16
2018-07-30T13:01:16.558Z,29.22
2018-07-30T13:04:22.208Z,29.29
2018-07-30T13:07:28.266Z,29.35
2018-07-30T13:10:34.364Z,29.42
2018-07-30T13:13:39.505Z,29.46
2018-07-30T13:16:44.589Z,29.47
2018-07-30T13:19:50.340Z,29.49
2018-07-30T13:22:55.823Z,29.54
2018-07-30T13:26:01.049Z,29.56
2018-07-30T13:29:06.558Z,29.56
2018-07-30T13:32:12.716Z,29.57
2018-07-30T13:35:17.555Z,29.59
2018-07-30T13:38:23.313Z,29.62
2018-07-30T13:41:29.248Z,29.67
2018-07-30T13:44:34.764Z,29.73
2018-07-30T13:47:39.774Z,29.83
2018-07-30T13:50:46.451Z,29.90
2018-07-30T13:53:53.590Z,29.96
2018-07-30T13:56:59.448Z,30.03
2018-07-30T14:00:05.260Z,30.09
2018-07-30T14:03:11.403Z,30.18
2018-07-30T14:06:16.604Z,30.26
2018-07-30T14:09:21.942Z,30.36
2018-07-30T14:12:27.597Z,30.43
2018-07-30T14:15:32.863Z,30.49
2018-07-30T14:18:38.723Z,30.60
2018-07-30T14:21:43.558Z,30.66
2018-07-30T14:24:48.919Z,30.72
2018-07-30T14:27:53.739Z,30.81
2018-07-30T14:30:58.618Z,30.85
2018-07-30T14:34:03.793Z,30.92
2018-07-30T14:37:08.648Z,30.99
2018-07-30T14:40:14.304Z,31.04
2018-07-30T14:43:19.138Z,31.10
2018-07-30T14:46:24.271Z,31.11
2018-07-30T14:49:30.309Z,31.15
2018-07-30T14:52:37.510Z,31.21
2018-07-30T14:55:43.592Z,31.31
2018-07-30T14:58:49.229Z,31.32
2018-07-30T15:01:56.565Z,31.37
2018-07-30T15:05:02.344Z,31.42
2018-07-30T15:08:09.302Z,31.44
2018-07-30T15:11:15.125Z,31.45
2018-07-30T15:14:21.218Z,31.43
2018-07-30T15:17:26.358Z,31.44
2018-07-30T15:20:31.731Z,31.42
2018-07-30T15:23:38.805Z,31.40
2018-07-30T15:26:45.183Z,31.42
2018-07-30T15:29:51.024Z,31.45
2018-07-30T15:32:58.078Z,31.49
2018-07-30T15:36:04.907Z,31.52
2018-07-30T15:39:11.524Z,31.54
2018-07-30T15:42:16.661Z,31.54
2018-07-30T15:45:21.793Z,31.57
2018-07-30T15:48:27.049Z,31.55
2018-07-30T15:51:33.481Z,31.53
2018-07-30T15:54:39.224Z,31.48
2018-07-30T15:57:45.216Z,31.44
2018-07-30T16:00:51.413Z,31.42
2018-07-30T16:03:58.577Z,31.38
2018-07-30T16:07:05.644Z,31.34
2018-07-30T16:10:12.749Z,31.30
2018-07-30T16:13:18.472Z,31.25
2018-07-30T16:16:24.389Z,31.19
2018-07-30T16:19:31.584Z,31.11
2018-07-30T16:22:38.195Z,31.05
2018-07-30T16:25:44.443Z,30.97
2018-07-30T16:28:51.442Z,30.92
2018-07-30T16:31:57.462Z,30.83
2018-07-30T16:35:02.760Z,30.73
2018-07-30T16:38:10.137Z,30.63
2018-07-30T16:41:15.789Z,30.53
2018-07-30T16:44:22.074Z,30.44
2018-07-30T16:47:27.870Z,30.36
2018-07-30T16:50:33.562Z,30.29
2018-07-30T16:53:39.605Z,30.23
2018-07-30T16:56:46.631Z,30.18
2018-07-30T16:59:52.581Z,30.14
2018-07-30T17:02:59.669Z,30.08
2018-07-30T17:06:05.545Z,30.05
2018-07-30T17:09:13.552Z,30.01
2018-07-30T17:12:22.510Z,29.97
2018-07-30T17:15:28.229Z,29.94
2018-07-30T17:18:34.358Z,29.88
2018-07-30T17:21:40.625Z,29.85
2018-07-30T17:24:48.065Z,29.79
2018-07-30T17:27:53.224Z,29.73
2018-07-30T17:30:59.983Z,29.66
2018-07-30T17:34:05.700Z,29.61
2018-07-30T17:37:12.128Z,29.55
2018-07-30T17:40:18.242Z,29.48
2018-07-30T17:43:24.749Z,29.41
2018-07-30T17:46:29.886Z,29.35
2018-07-30T17:49:36.014Z,29.30
2018-07-30T17:52:42.300Z,29.23
2018-07-30T17:55:48.762Z,29.15
2018-07-30T17:58:54.839Z,29.06
2018-07-30T18:01:59.990Z,29.00
2018-07-30T18:05:05.638Z,28.91
2018-07-30T18:08:11.897Z,28.84
2018-07-30T18:11:18.661Z,28.76
2018-07-30T18:14:24.677Z,28.69
2018-07-30T18:17:31.137Z,28.61
2018-07-30T18:20:36.789Z,28.55
2018-07-30T18:23:45.702Z,28.48
2018-07-30T18:26:52.378Z,28.41
2018-07-30T18:29:58.131Z,28.34
2018-07-30T18:33:04.344Z,28.28
2018-07-30T18:36:10.185Z,28.22
2018-07-30T18:39:16.797Z,28.17
2018-07-30T18:42:23.497Z,28.11
2018-07-30T18:45:29.137Z,28.05
2018-07-30T18:48:35.178Z,27.99
2018-07-30T18:51:41.077Z,27.94
2018-07-30T18:54:47.713Z,27.87
2018-07-30T18:57:53.010Z,27.82
2018-07-30T19:00:59.186Z,27.75
2018-07-30T19:04:06.434Z,27.69
2018-07-30T19:07:11.991Z,27.62
2018-07-30T19:10:17.569Z,27.55
2018-07-30T19:13:23.927Z,27.48
2018-07-30T19:16:29.310Z,27.41
2018-07-30T19:19:35.503Z,27.35
2018-07-30T19:22:41.551Z,27.29
2018-07-30T19:25:48.601Z,27.23
2018-07-30T19:28:56.403Z,27.15
2018-07-30T19:32:02.497Z,27.08
2018-07-30T19:35:08.419Z,27.03
2018-07-30T19:38:15.278Z,26.97
2018-07-30T19:41:22.638Z,26.91
2018-07-30T19:44:28.546Z,26.83
2018-07-30T19:47:34.549Z,26.78
2018-07-30T19:50:40.562Z,26.71
2018-07-30T19:53:46.550Z,26.66
2018-07-30T19:56:52.733Z,26.60
2018-07-30T19:59:58.636Z,26.54
2018-07-30T20:03:04.533Z,26.47
2018-07-30T20:06:10.189Z,26.41
2018-07-30T20:09:16.830Z,26.35
2018-07-30T20:12:22.600Z,26.29
2018-07-30T20:15:27.927Z,26.23
2018-07-30T20:18:33.921Z,26.17
2018-07-30T20:21:39.881Z,26.13
2018-07-30T20:24:46.212Z,26.05
2018-07-30T20:27:51.798Z,26.01
2018-07-30T20:30:57.873Z,25.95
2018-07-30T20:34:06.298Z,25.91
2018-07-30T20:37:11.295Z,25.85
2018-07-30T20:40:16.882Z,25.79
2018-07-30T20:43:22.879Z,25.75
2018-07-30T20:46:29.415Z,25.69
2018-07-30T20:49:34.625Z,25.66
2018-07-30T20:52:39.842Z,25.61
2018-07-30T20:55:46.035Z,25.58
2018-07-30T20:58:52.216Z,25.53
2018-07-30T21:01:58.954Z,25.48
2018-07-30T21:05:04.963Z,25.45
2018-07-30T21:08:12.383Z,25.43
2018-07-30T21:11:18.834Z,25.38
2018-07-30T21:14:23.957Z,25.35
2018-07-30T21:17:29.337Z,25.32
2018-07-30T21:20:36.469Z,25.29
2018-07-30T21:23:43.198Z,25.25
2018-07-30T21:26:49.612Z,25.23
2018-07-30T21:29:55.006Z,25.19
2018-07-30T21:33:01.671Z,25.16
2018-07-30T21:36:07.146Z,25.14
2018-07-30T21:39:14.353Z,25.11
2018-07-30T21:42:19.700Z,25.07
2018-07-30T21:45:35.175Z,25.05
2018-07-30T21:48:41.348Z,25.01
2018-07-30T21:51:47.468Z,24.98
2018-07-30T21:54:53.586Z,24.95
2018-07-30T21:57:59.021Z,24.93
2018-07-30T22:01:04.329Z,24.90
2018-07-30T22:04:10.069Z,24.86
2018-07-30T22:07:15.481Z,24.83
2018-07-30T22:10:23.506Z,24.81
2018-07-30T22:13:29.379Z,24.78
2018-07-30T22:16:36.731Z,24.76
2018-07-30T22:19:43.685Z,24.73
2018-07-30T22:22:49.431Z,24.69
2018-07-30T22:25:56.469Z,24.67
2018-07-30T22:29:02.405Z,24.62
2018-07-30T22:32:08.705Z,24.60
2018-07-30T22:35:14.894Z,24.57
2018-07-30T22:38:21.533Z,24.54
2018-07-30T22:41:28.462Z,24.52
2018-07-30T22:44:34.429Z,24.48
2018-07-30T22:47:41.037Z,24.45
2018-07-30T22:50:47.375Z,24.43
2018-07-30T22:53:52.990Z,24.40
2018-07-30T22:56:59.086Z,24.35
2018-07-30T23:00:05.744Z,24.35
2018-07-30T23:03:10.857Z,24.31
2018-07-30T23:06:17.138Z,24.29
2018-07-30T23:09:24.123Z,24.26
2018-07-30T23:12:31.162Z,24.24
2018-07-30T23:15:37.449Z,24.21
2018-07-30T23:18:42.667Z,24.19
2018-07-30T23:21:47.800Z,24.16
2018-07-30T23:24:52.900Z,24.14
2018-07-30T23:27:59.389Z,24.12
2018-07-30T23:31:05.864Z,24.10
2018-07-30T23:34:11.393Z,24.06
2018-07-30T23:37:17.499Z,24.03
2018-07-30T23:40:24.030Z,24.02
2018-07-30T23:43:31.216Z,23.98
2018-07-30T23:46:36.703Z,23.96
2018-07-30T23:49:42.337Z,23.92
2018-07-30T23:52:48.158Z,23.89
2018-07-30T23:55:53.903Z,23.85
2018-07-30T23:58:59.947Z,23.82
